sensor_id;sensor_type;location;lat;lon;timestamp;temperature;humidity
34768;DHT22;21755;43.608;1.236;2023-09-18T00:02:25;19.10;99.90
34768;DHT22;21755;43.608;1.236;2023-09-18T00:04:52;19.10;99.90
34768;DHT22;21755;43.608;1.236;2023-09-18T00:07:18;19.10;99.90
34768;DHT22;21755;43.608;1.236;2023-09-18T00:09:44;19.10;99.90
34768;DHT22;21755;43.608;1.236;2023-09-18T00:12:10;19.10;99.90
34768;DHT22;21755;43.608;1.236;2023-09-18T00:14:38;19.10;99.90
34768;DHT22;21755;43.608;1.236;2023-09-18T00:17:04;19.10;99.90
34768;DHT22;21755;43.608;1.236;2023-09-18T00:19:30;19.10;99.90
34768;DHT22;21755;43.608;1.236;2023-09-18T00:21:57;19.10;99.90
34768;DHT22;21755;43.608;1.236;2023-09-18T00:24:26;19.10;99.90
34768;DHT22;21755;43.608;1.236;2023-09-18T00:26:52;19.00;99.90
34768;DHT22;21755;43.608;1.236;2023-09-18T00:29:18;19.00;99.90
34768;DHT22;21755;43.608;1.236;2023-09-18T00:31:45;19.00;99.90
34768;DHT22;21755;43.608;1.236;2023-09-18T00:34:10;19.00;99.90
34768;DHT22;21755;43.608;1.236;2023-09-18T00:36:36;19.10;99.90
34768;DHT22;21755;43.608;1.236;2023-09-18T00:39:02;19.00;99.90
34768;DHT22;21755;43.608;1.236;2023-09-18T00:41:29;19.00;99.90
34768;DHT22;21755;43.608;1.236;2023-09-18T00:43:55;19.00;99.90
34768;DHT22;21755;43.608;1.236;2023-09-18T00:46:21;19.00;99.90
34768;DHT22;21755;43.608;1.236;2023-09-18T00:48:48;19.00;99.90
34768;DHT22;21755;43.608;1.236;2023-09-18T00:51:15;19.00;99.90
34768;DHT22;21755;43.608;1.236;2023-09-18T00:53:45;19.00;99.90
34768;DHT22;21755;43.608;1.236;2023-09-18T00:56:14;19.00;99.90
34768;DHT22;21755;43.608;1.236;2023-09-18T00:58:40;19.10;99.90
34768;DHT22;21755;43.608;1.236;2023-09-18T01:01:06;19.10;99.90
34768;DHT22;21755;43.608;1.236;2023-09-18T01:03:34;19.00;99.90
34768;DHT22;21755;43.608;1.236;2023-09-18T01:06:00;19.10;99.90
34768;DHT22;21755;43.608;1.236;2023-09-18T01:08:26;19.00;99.90
34768;DHT22;21755;43.608;1.236;2023-09-18T01:11:19;18.90;99.90
34768;DHT22;21755;43.608;1.236;2023-09-18T01:14:04;19.00;99.90
34768;DHT22;21755;43.608;1.236;2023-09-18T01:16:36;18.90;99.90
34768;DHT22;21755;43.608;1.236;2023-09-18T01:19:05;18.90;99.90
34768;DHT22;21755;43.608;1.236;2023-09-18T01:21:31;18.90;99.90
34768;DHT22;21755;43.608;1.236;2023-09-18T01:23:56;19.00;99.90
34768;DHT22;21755;43.608;1.236;2023-09-18T01:26:22;19.00;99.90
34768;DHT22;21755;43.608;1.236;2023-09-18T01:28:48;18.90;99.90
34768;DHT22;21755;43.608;1.236;2023-09-18T01:31:14;18.90;99.90
34768;DHT22;21755;43.608;1.236;2023-09-18T01:33:40;18.90;99.90
34768;DHT22;21755;43.608;1.236;2023-09-18T01:36:09;18.90;99.90
34768;DHT22;21755;43.608;1.236;2023-09-18T01:38:37;18.90;99.90
34768;DHT22;21755;43.608;1.236;2023-09-18T01:41:03;18.80;99.90
34768;DHT22;21755;43.608;1.236;2023-09-18T01:43:28;18.80;99.90
34768;DHT22;21755;43.608;1.236;2023-09-18T01:45:56;18.80;99.90
34768;DHT22;21755;43.608;1.236;2023-09-18T01:48:22;18.80;99.90
34768;DHT22;21755;43.608;1.236;2023-09-18T01:50:48;18.80;99.90
34768;DHT22;21755;43.608;1.236;2023-09-18T01:53:14;18.70;99.90
34768;DHT22;21755;43.608;1.236;2023-09-18T01:55:40;18.70;99.90
34768;DHT22;21755;43.608;1.236;2023-09-18T01:58:05;18.70;99.90
34768;DHT22;21755;43.608;1.236;2023-09-18T02:00:31;18.70;99.90
34768;DHT22;21755;43.608;1.236;2023-09-18T02:02:57;18.60;99.90
34768;DHT22;21755;43.608;1.236;2023-09-18T02:05:23;18.60;99.90
34768;DHT22;21755;43.608;1.236;2023-09-18T02:07:49;18.50;99.90
34768;DHT22;21755;43.608;1.236;2023-09-18T02:10:15;18.50;99.90
34768;DHT22;21755;43.608;1.236;2023-09-18T02:12:41;18.40;99.90
34768;DHT22;21755;43.608;1.236;2023-09-18T02:15:07;18.40;99.90
34768;DHT22;21755;43.608;1.236;2023-09-18T02:17:35;18.40;99.90
34768;DHT22;21755;43.608;1.236;2023-09-18T02:20:03;18.40;99.90
34768;DHT22;21755;43.608;1.236;2023-09-18T02:22:32;18.40;99.90
34768;DHT22;21755;43.608;1.236;2023-09-18T02:24:58;18.30;99.90
34768;DHT22;21755;43.608;1.236;2023-09-18T02:27:24;18.30;99.90
34768;DHT22;21755;43.608;1.236;2023-09-18T02:29:50;18.30;99.90
34768;DHT22;21755;43.608;1.236;2023-09-18T02:32:19;18.30;99.90
34768;DHT22;21755;43.608;1.236;2023-09-18T02:34:44;18.30;99.90
34768;DHT22;21755;43.608;1.236;2023-09-18T02:37:10;18.30;99.90
34768;DHT22;21755;43.608;1.236;2023-09-18T02:39:36;18.30;99.90
34768;DHT22;21755;43.608;1.236;2023-09-18T02:42:02;18.20;99.90
34768;DHT22;21755;43.608;1.236;2023-09-18T02:44:28;18.20;99.90
34768;DHT22;21755;43.608;1.236;2023-09-18T02:46:54;18.20;99.90
34768;DHT22;21755;43.608;1.236;2023-09-18T02:49:19;18.10;99.90
34768;DHT22;21755;43.608;1.236;2023-09-18T02:51:46;18.10;99.90
34768;DHT22;21755;43.608;1.236;2023-09-18T02:54:12;18.00;99.90
34768;DHT22;21755;43.608;1.236;2023-09-18T02:56:37;18.00;99.90
34768;DHT22;21755;43.608;1.236;2023-09-18T02:59:04;18.00;99.90
34768;DHT22;21755;43.608;1.236;2023-09-18T03:01:30;18.00;99.90
34768;DHT22;21755;43.608;1.236;2023-09-18T03:03:55;17.90;99.90
34768;DHT22;21755;43.608;1.236;2023-09-18T03:06:21;18.00;99.90
34768;DHT22;21755;43.608;1.236;2023-09-18T03:08:47;18.00;99.90
34768;DHT22;21755;43.608;1.236;2023-09-18T03:11:14;18.00;99.90
34768;DHT22;21755;43.608;1.236;2023-09-18T03:13:46;18.00;99.90
34768;DHT22;21755;43.608;1.236;2023-09-18T03:16:12;17.90;99.90
34768;DHT22;21755;43.608;1.236;2023-09-18T03:18:38;17.90;99.90
34768;DHT22;21755;43.608;1.236;2023-09-18T03:21:04;17.90;99.90
34768;DHT22;21755;43.608;1.236;2023-09-18T03:23:30;17.90;99.90
34768;DHT22;21755;43.608;1.236;2023-09-18T03:25:56;17.80;99.90
34768;DHT22;21755;43.608;1.236;2023-09-18T03:28:21;17.80;99.90
34768;DHT22;21755;43.608;1.236;2023-09-18T03:30:49;17.80;99.90
34768;DHT22;21755;43.608;1.236;2023-09-18T03:33:15;17.80;99.90
34768;DHT22;21755;43.608;1.236;2023-09-18T03:35:50;17.70;99.90
34768;DHT22;21755;43.608;1.236;2023-09-18T03:38:17;17.70;99.90
34768;DHT22;21755;43.608;1.236;2023-09-18T03:40:43;17.80;99.90
34768;DHT22;21755;43.608;1.236;2023-09-18T03:43:10;17.70;99.90
34768;DHT22;21755;43.608;1.236;2023-09-18T03:45:37;17.70;99.90
34768;DHT22;21755;43.608;1.236;2023-09-18T03:48:04;17.70;99.90
34768;DHT22;21755;43.608;1.236;2023-09-18T03:50:30;17.70;99.90
34768;DHT22;21755;43.608;1.236;2023-09-18T03:52:56;17.70;99.90
34768;DHT22;21755;43.608;1.236;2023-09-18T03:55:22;17.60;99.90
34768;DHT22;21755;43.608;1.236;2023-09-18T03:57:48;17.60;99.90
34768;DHT22;21755;43.608;1.236;2023-09-18T04:00:14;17.60;99.90
34768;DHT22;21755;43.608;1.236;2023-09-18T04:02:40;17.50;99.90
34768;DHT22;21755;43.608;1.236;2023-09-18T04:05:06;17.40;99.90
34768;DHT22;21755;43.608;1.236;2023-09-18T04:07:32;17.40;99.90
34768;DHT22;21755;43.608;1.236;2023-09-18T04:09:58;17.30;99.90
34768;DHT22;21755;43.608;1.236;2023-09-18T04:12:25;17.30;99.90
34768;DHT22;21755;43.608;1.236;2023-09-18T04:14:51;17.30;99.90
34768;DHT22;21755;43.608;1.236;2023-09-18T04:17:17;17.30;99.90
34768;DHT22;21755;43.608;1.236;2023-09-18T04:19:44;17.20;99.90
34768;DHT22;21755;43.608;1.236;2023-09-18T04:22:10;17.20;99.90
34768;DHT22;21755;43.608;1.236;2023-09-18T04:24:35;17.10;99.90
34768;DHT22;21755;43.608;1.236;2023-09-18T04:27:01;17.20;99.90
34768;DHT22;21755;43.608;1.236;2023-09-18T04:29:27;17.20;99.90
34768;DHT22;21755;43.608;1.236;2023-09-18T04:31:53;17.20;99.90
34768;DHT22;21755;43.608;1.236;2023-09-18T04:34:21;17.10;99.90
34768;DHT22;21755;43.608;1.236;2023-09-18T04:36:47;17.10;99.90
34768;DHT22;21755;43.608;1.236;2023-09-18T04:39:13;17.10;99.90
34768;DHT22;21755;43.608;1.236;2023-09-18T04:41:39;17.10;99.90
34768;DHT22;21755;43.608;1.236;2023-09-18T04:44:05;17.10;99.90
34768;DHT22;21755;43.608;1.236;2023-09-18T04:46:33;17.10;99.90
34768;DHT22;21755;43.608;1.236;2023-09-18T04:49:00;17.10;99.90
34768;DHT22;21755;43.608;1.236;2023-09-18T04:51:26;17.00;99.90
34768;DHT22;21755;43.608;1.236;2023-09-18T04:53:52;17.00;99.90
34768;DHT22;21755;43.608;1.236;2023-09-18T04:56:17;17.00;99.90
34768;DHT22;21755;43.608;1.236;2023-09-18T04:58:43;17.00;99.90
34768;DHT22;21755;43.608;1.236;2023-09-18T05:01:09;17.00;99.90
34768;DHT22;21755;43.608;1.236;2023-09-18T05:03:37;17.00;99.90
34768;DHT22;21755;43.608;1.236;2023-09-18T05:06:03;17.00;99.90
34768;DHT22;21755;43.608;1.236;2023-09-18T05:08:29;16.90;99.90
34768;DHT22;21755;43.608;1.236;2023-09-18T05:10:55;16.90;99.90
34768;DHT22;21755;43.608;1.236;2023-09-18T05:13:23;16.90;99.90
34768;DHT22;21755;43.608;1.236;2023-09-18T05:15:49;16.80;99.90
34768;DHT22;21755;43.608;1.236;2023-09-18T05:18:15;16.80;99.90
34768;DHT22;21755;43.608;1.236;2023-09-18T05:20:40;16.80;99.90
34768;DHT22;21755;43.608;1.236;2023-09-18T05:23:06;16.70;99.90
34768;DHT22;21755;43.608;1.236;2023-09-18T05:25:34;16.80;99.90
34768;DHT22;21755;43.608;1.236;2023-09-18T05:28:03;16.80;99.90
34768;DHT22;21755;43.608;1.236;2023-09-18T05:30:32;16.70;99.90
34768;DHT22;21755;43.608;1.236;2023-09-18T05:33:01;16.70;99.90
34768;DHT22;21755;43.608;1.236;2023-09-18T05:35:34;16.70;99.90
34768;DHT22;21755;43.608;1.236;2023-09-18T05:38:00;16.70;99.90
34768;DHT22;21755;43.608;1.236;2023-09-18T05:40:26;16.80;99.90
34768;DHT22;21755;43.608;1.236;2023-09-18T05:42:53;16.80;99.90
34768;DHT22;21755;43.608;1.236;2023-09-18T05:45:20;16.90;99.90
34768;DHT22;21755;43.608;1.236;2023-09-18T05:47:46;16.90;99.90
34768;DHT22;21755;43.608;1.236;2023-09-18T05:50:12;16.90;99.90
34768;DHT22;21755;43.608;1.236;2023-09-18T05:52:43;16.80;99.90
34768;DHT22;21755;43.608;1.236;2023-09-18T05:55:09;16.80;99.90
34768;DHT22;21755;43.608;1.236;2023-09-18T05:57:36;16.80;99.90
34768;DHT22;21755;43.608;1.236;2023-09-18T06:00:03;16.80;99.90
34768;DHT22;21755;43.608;1.236;2023-09-18T06:02:29;16.80;99.90
34768;DHT22;21755;43.608;1.236;2023-09-18T06:04:58;16.80;99.90
34768;DHT22;21755;43.608;1.236;2023-09-18T06:07:29;16.80;99.90
34768;DHT22;21755;43.608;1.236;2023-09-18T06:09:56;16.80;99.90
34768;DHT22;21755;43.608;1.236;2023-09-18T06:12:22;16.80;99.90
34768;DHT22;21755;43.608;1.236;2023-09-18T06:14:49;16.80;99.90
34768;DHT22;21755;43.608;1.236;2023-09-18T06:17:16;16.80;99.90
34768;DHT22;21755;43.608;1.236;2023-09-18T06:19:42;16.80;99.90
34768;DHT22;21755;43.608;1.236;2023-09-18T06:22:08;16.80;99.90
34768;DHT22;21755;43.608;1.236;2023-09-18T06:24:37;16.90;99.90
34768;DHT22;21755;43.608;1.236;2023-09-18T06:27:04;17.00;99.90
34768;DHT22;21755;43.608;1.236;2023-09-18T06:29:30;17.00;99.90
34768;DHT22;21755;43.608;1.236;2023-09-18T06:31:56;17.10;99.90
34768;DHT22;21755;43.608;1.236;2023-09-18T06:34:22;17.20;99.90
34768;DHT22;21755;43.608;1.236;2023-09-18T06:36:48;17.20;99.90
34768;DHT22;21755;43.608;1.236;2023-09-18T06:39:14;17.30;99.90
34768;DHT22;21755;43.608;1.236;2023-09-18T06:41:40;17.30;99.90
34768;DHT22;21755;43.608;1.236;2023-09-18T06:44:06;17.40;99.90
34768;DHT22;21755;43.608;1.236;2023-09-18T06:46:32;17.50;99.90
34768;DHT22;21755;43.608;1.236;2023-09-18T06:48:59;17.50;99.90
34768;DHT22;21755;43.608;1.236;2023-09-18T06:51:28;17.50;99.90
34768;DHT22;21755;43.608;1.236;2023-09-18T06:53:54;17.60;99.90
34768;DHT22;21755;43.608;1.236;2023-09-18T06:56:25;17.60;99.90
34768;DHT22;21755;43.608;1.236;2023-09-18T06:58:51;17.60;99.90
34768;DHT22;21755;43.608;1.236;2023-09-18T07:01:18;17.60;99.90
34768;DHT22;21755;43.608;1.236;2023-09-18T07:03:45;17.70;99.90
34768;DHT22;21755;43.608;1.236;2023-09-18T07:06:14;17.70;99.90
34768;DHT22;21755;43.608;1.236;2023-09-18T07:08:43;17.70;99.90
34768;DHT22;21755;43.608;1.236;2023-09-18T07:11:09;17.70;99.90
34768;DHT22;21755;43.608;1.236;2023-09-18T07:13:35;17.80;99.90
34768;DHT22;21755;43.608;1.236;2023-09-18T07:16:00;17.80;99.90
34768;DHT22;21755;43.608;1.236;2023-09-18T07:18:26;17.90;99.90
34768;DHT22;21755;43.608;1.236;2023-09-18T07:20:52;18.00;99.90
34768;DHT22;21755;43.608;1.236;2023-09-18T07:23:18;18.00;99.90
34768;DHT22;21755;43.608;1.236;2023-09-18T07:25:44;18.00;99.90
34768;DHT22;21755;43.608;1.236;2023-09-18T07:28:10;18.10;99.90
34768;DHT22;21755;43.608;1.236;2023-09-18T07:30:41;18.10;99.90
34768;DHT22;21755;43.608;1.236;2023-09-18T07:33:07;18.20;99.90
34768;DHT22;21755;43.608;1.236;2023-09-18T07:35:33;18.30;99.90
34768;DHT22;21755;43.608;1.236;2023-09-18T07:37:59;18.30;99.90
34768;DHT22;21755;43.608;1.236;2023-09-18T07:40:25;18.30;99.90
34768;DHT22;21755;43.608;1.236;2023-09-18T07:42:50;18.40;99.90
34768;DHT22;21755;43.608;1.236;2023-09-18T07:45:16;18.40;99.90
34768;DHT22;21755;43.608;1.236;2023-09-18T07:47:44;18.50;99.90
34768;DHT22;21755;43.608;1.236;2023-09-18T07:50:10;18.50;99.90
34768;DHT22;21755;43.608;1.236;2023-09-18T07:52:35;18.60;99.90
34768;DHT22;21755;43.608;1.236;2023-09-18T07:55:03;18.60;99.90
34768;DHT22;21755;43.608;1.236;2023-09-18T07:57:29;18.60;99.90
34768;DHT22;21755;43.608;1.236;2023-09-18T07:59:57;18.70;99.90
34768;DHT22;21755;43.608;1.236;2023-09-18T08:02:24;18.70;99.90
34768;DHT22;21755;43.608;1.236;2023-09-18T08:04:50;18.80;99.90
34768;DHT22;21755;43.608;1.236;2023-09-18T08:07:19;18.80;99.90
34768;DHT22;21755;43.608;1.236;2023-09-18T08:09:44;18.90;99.90
34768;DHT22;21755;43.608;1.236;2023-09-18T08:12:13;18.90;99.90
34768;DHT22;21755;43.608;1.236;2023-09-18T08:14:39;19.00;99.90
34768;DHT22;21755;43.608;1.236;2023-09-18T08:17:05;19.00;99.90
34768;DHT22;21755;43.608;1.236;2023-09-18T08:19:33;19.10;99.90
34768;DHT22;21755;43.608;1.236;2023-09-18T08:21:59;19.10;99.90
34768;DHT22;21755;43.608;1.236;2023-09-18T08:24:29;19.20;99.90
34768;DHT22;21755;43.608;1.236;2023-09-18T08:26:55;19.20;99.90
34768;DHT22;21755;43.608;1.236;2023-09-18T08:29:22;19.30;99.90
34768;DHT22;21755;43.608;1.236;2023-09-18T08:31:48;19.30;99.90
34768;DHT22;21755;43.608;1.236;2023-09-18T08:34:14;19.30;99.90
34768;DHT22;21755;43.608;1.236;2023-09-18T08:36:40;19.40;99.90
34768;DHT22;21755;43.608;1.236;2023-09-18T08:39:06;19.40;99.90
34768;DHT22;21755;43.608;1.236;2023-09-18T08:41:33;19.40;99.90
34768;DHT22;21755;43.608;1.236;2023-09-18T08:44:03;19.50;99.90
34768;DHT22;21755;43.608;1.236;2023-09-18T08:46:30;19.50;99.90
34768;DHT22;21755;43.608;1.236;2023-09-18T08:48:57;19.50;99.90
34768;DHT22;21755;43.608;1.236;2023-09-18T08:51:24;19.60;99.90
34768;DHT22;21755;43.608;1.236;2023-09-18T08:53:50;19.60;99.90
34768;DHT22;21755;43.608;1.236;2023-09-18T08:56:17;19.70;99.90
34768;DHT22;21755;43.608;1.236;2023-09-18T08:58:43;19.70;99.90
34768;DHT22;21755;43.608;1.236;2023-09-18T09:01:10;19.70;99.90
34768;DHT22;21755;43.608;1.236;2023-09-18T09:03:37;19.80;99.90
34768;DHT22;21755;43.608;1.236;2023-09-18T09:06:05;19.90;99.90
34768;DHT22;21755;43.608;1.236;2023-09-18T09:08:32;19.90;99.90
34768;DHT22;21755;43.608;1.236;2023-09-18T09:10:58;20.00;99.90
34768;DHT22;21755;43.608;1.236;2023-09-18T09:13:24;20.10;99.90
34768;DHT22;21755;43.608;1.236;2023-09-18T09:15:53;20.20;99.90
34768;DHT22;21755;43.608;1.236;2023-09-18T09:18:22;20.20;99.90
34768;DHT22;21755;43.608;1.236;2023-09-18T09:20:56;20.20;99.90
34768;DHT22;21755;43.608;1.236;2023-09-18T09:23:25;20.30;99.90
34768;DHT22;21755;43.608;1.236;2023-09-18T09:25:51;20.30;99.90
34768;DHT22;21755;43.608;1.236;2023-09-18T09:28:31;20.40;99.90
34768;DHT22;21755;43.608;1.236;2023-09-18T09:31:03;20.40;99.90
34768;DHT22;21755;43.608;1.236;2023-09-18T09:33:30;20.40;99.90
34768;DHT22;21755;43.608;1.236;2023-09-18T09:35:56;20.50;99.90
34768;DHT22;21755;43.608;1.236;2023-09-18T09:38:29;20.50;99.90
34768;DHT22;21755;43.608;1.236;2023-09-18T09:40:58;20.60;99.90
34768;DHT22;21755;43.608;1.236;2023-09-18T09:43:31;20.60;99.90
34768;DHT22;21755;43.608;1.236;2023-09-18T09:46:00;20.60;99.90
34768;DHT22;21755;43.608;1.236;2023-09-18T09:48:28;20.60;99.90
34768;DHT22;21755;43.608;1.236;2023-09-18T09:51:00;20.70;99.90
34768;DHT22;21755;43.608;1.236;2023-09-18T09:53:46;20.70;99.90
34768;DHT22;21755;43.608;1.236;2023-09-18T09:56:16;20.80;99.90
34768;DHT22;21755;43.608;1.236;2023-09-18T09:59:04;20.80;99.90
34768;DHT22;21755;43.608;1.236;2023-09-18T10:01:34;20.80;99.90
34768;DHT22;21755;43.608;1.236;2023-09-18T10:04:04;20.90;99.90
34768;DHT22;21755;43.608;1.236;2023-09-18T10:06:34;20.90;99.90
34768;DHT22;21755;43.608;1.236;2023-09-18T10:09:03;20.90;99.90
34768;DHT22;21755;43.608;1.236;2023-09-18T10:11:31;20.90;99.90
34768;DHT22;21755;43.608;1.236;2023-09-18T10:14:11;21.00;99.90
34768;DHT22;21755;43.608;1.236;2023-09-18T10:16:41;21.00;99.90
34768;DHT22;21755;43.608;1.236;2023-09-18T10:22:15;21.10;99.90
34768;DHT22;21755;43.608;1.236;2023-09-18T10:24:37;21.20;99.90
34768;DHT22;21755;43.608;1.236;2023-09-18T10:27:06;21.20;99.90
34768;DHT22;21755;43.608;1.236;2023-09-18T10:29:36;21.20;99.90
34768;DHT22;21755;43.608;1.236;2023-09-18T10:32:06;21.30;99.90
34768;DHT22;21755;43.608;1.236;2023-09-18T10:34:35;21.30;99.90
34768;DHT22;21755;43.608;1.236;2023-09-18T10:37:03;21.40;99.90
34768;DHT22;21755;43.608;1.236;2023-09-18T10:39:37;21.40;99.90
34768;DHT22;21755;43.608;1.236;2023-09-18T10:42:08;21.50;99.90
34768;DHT22;21755;43.608;1.236;2023-09-18T10:44:34;21.60;99.90
34768;DHT22;21755;43.608;1.236;2023-09-18T10:47:02;21.60;99.90
34768;DHT22;21755;43.608;1.236;2023-09-18T10:49:31;21.60;99.90
34768;DHT22;21755;43.608;1.236;2023-09-18T10:51:57;21.70;99.90
34768;DHT22;21755;43.608;1.236;2023-09-18T10:54:26;21.70;99.90
34768;DHT22;21755;43.608;1.236;2023-09-18T10:56:52;21.80;99.90
34768;DHT22;21755;43.608;1.236;2023-09-18T10:59:20;21.80;99.90
34768;DHT22;21755;43.608;1.236;2023-09-18T11:01:46;21.80;99.90
34768;DHT22;21755;43.608;1.236;2023-09-18T11:04:18;21.80;99.90
34768;DHT22;21755;43.608;1.236;2023-09-18T11:09:24;21.90;99.90
34768;DHT22;21755;43.608;1.236;2023-09-18T11:14:58;22.10;92.70
34768;DHT22;21755;43.608;1.236;2023-09-18T11:17:38;22.20;91.70
34768;DHT22;21755;43.608;1.236;2023-09-18T11:20:46;22.20;88.40
34768;DHT22;21755;43.608;1.236;2023-09-18T11:23:18;22.20;76.80
34768;DHT22;21755;43.608;1.236;2023-09-18T11:25:44;22.30;58.90
34768;DHT22;21755;43.608;1.236;2023-09-18T11:28:16;22.30;50.90
34768;DHT22;21755;43.608;1.236;2023-09-18T11:30:55;22.40;47.40
34768;DHT22;21755;43.608;1.236;2023-09-18T11:36:06;22.40;1.00
34768;DHT22;21755;43.608;1.236;2023-09-18T11:38:50;22.40;9.00
34768;DHT22;21755;43.608;1.236;2023-09-18T11:41:21;22.50;16.20
34768;DHT22;21755;43.608;1.236;2023-09-18T11:43:47;22.50;11.30
34768;DHT22;21755;43.608;1.236;2023-09-18T11:46:18;22.60;4.40
34768;DHT22;21755;43.608;1.236;2023-09-18T11:48:47;22.60;1.00
34768;DHT22;21755;43.608;1.236;2023-09-18T11:51:21;22.70;1.00
34768;DHT22;21755;43.608;1.236;2023-09-18T11:53:52;22.70;1.00
34768;DHT22;21755;43.608;1.236;2023-09-18T11:56:20;22.70;1.00
34768;DHT22;21755;43.608;1.236;2023-09-18T11:58:50;22.70;1.00
34768;DHT22;21755;43.608;1.236;2023-09-18T12:01:18;22.80;1.00
34768;DHT22;21755;43.608;1.236;2023-09-18T12:03:44;22.80;1.00
34768;DHT22;21755;43.608;1.236;2023-09-18T12:06:11;22.90;1.00
34768;DHT22;21755;43.608;1.236;2023-09-18T12:08:39;23.00;1.00
34768;DHT22;21755;43.608;1.236;2023-09-18T12:11:06;23.00;1.00
34768;DHT22;21755;43.608;1.236;2023-09-18T12:13:32;23.10;1.00
34768;DHT22;21755;43.608;1.236;2023-09-18T12:16:00;23.20;1.00
34768;DHT22;21755;43.608;1.236;2023-09-18T12:18:27;23.30;99.90
34768;DHT22;21755;43.608;1.236;2023-09-18T12:20:55;23.30;99.90
34768;DHT22;21755;43.608;1.236;2023-09-18T12:23:22;23.40;99.90
34768;DHT22;21755;43.608;1.236;2023-09-18T12:25:51;23.50;99.90
34768;DHT22;21755;43.608;1.236;2023-09-18T12:28:22;23.50;99.90
34768;DHT22;21755;43.608;1.236;2023-09-18T12:30:48;23.50;99.90
34768;DHT22;21755;43.608;1.236;2023-09-18T12:33:16;23.50;99.90
34768;DHT22;21755;43.608;1.236;2023-09-18T12:35:42;23.50;99.90
34768;DHT22;21755;43.608;1.236;2023-09-18T12:38:16;23.50;99.90
34768;DHT22;21755;43.608;1.236;2023-09-18T12:40:43;23.50;99.90
34768;DHT22;21755;43.608;1.236;2023-09-18T12:43:12;23.60;1.00
34768;DHT22;21755;43.608;1.236;2023-09-18T12:45:41;23.70;1.00
34768;DHT22;21755;43.608;1.236;2023-09-18T12:48:08;23.70;11.70
34768;DHT22;21755;43.608;1.236;2023-09-18T12:50:34;23.70;99.90
34768;DHT22;21755;43.608;1.236;2023-09-18T12:53:13;23.70;99.90
34768;DHT22;21755;43.608;1.236;2023-09-18T12:55:41;23.80;21.80
34768;DHT22;21755;43.608;1.236;2023-09-18T12:58:11;23.90;1.00
34768;DHT22;21755;43.608;1.236;2023-09-18T13:00:50;24.10;99.90
34768;DHT22;21755;43.608;1.236;2023-09-18T13:03:16;24.10;55.30
34768;DHT22;21755;43.608;1.236;2023-09-18T13:05:42;24.10;99.90
34768;DHT22;21755;43.608;1.236;2023-09-18T13:08:09;24.10;99.90
34768;DHT22;21755;43.608;1.236;2023-09-18T13:10:44;24.10;99.90
34768;DHT22;21755;43.608;1.236;2023-09-18T13:13:18;24.20;99.90
34768;DHT22;21755;43.608;1.236;2023-09-18T13:15:44;24.30;99.90
34768;DHT22;21755;43.608;1.236;2023-09-18T13:18:14;24.40;99.90
34768;DHT22;21755;43.608;1.236;2023-09-18T13:20:40;24.40;99.90
34768;DHT22;21755;43.608;1.236;2023-09-18T13:23:07;24.50;99.90
34768;DHT22;21755;43.608;1.236;2023-09-18T13:25:38;24.50;99.90
34768;DHT22;21755;43.608;1.236;2023-09-18T13:28:06;24.60;1.00
34768;DHT22;21755;43.608;1.236;2023-09-18T13:30:33;24.70;1.00
34768;DHT22;21755;43.608;1.236;2023-09-18T13:33:15;24.80;1.00
34768;DHT22;21755;43.608;1.236;2023-09-18T13:35:43;24.70;99.90
34768;DHT22;21755;43.608;1.236;2023-09-18T13:38:11;24.90;1.00
34768;DHT22;21755;43.608;1.236;2023-09-18T13:40:39;24.90;99.90
34768;DHT22;21755;43.608;1.236;2023-09-18T13:43:07;25.00;1.00
34768;DHT22;21755;43.608;1.236;2023-09-18T13:45:34;25.10;99.90
34768;DHT22;21755;43.608;1.236;2023-09-18T13:48:03;25.10;99.90
34768;DHT22;21755;43.608;1.236;2023-09-18T13:50:30;25.20;99.90
34768;DHT22;21755;43.608;1.236;2023-09-18T13:52:56;25.10;99.90
34768;DHT22;21755;43.608;1.236;2023-09-18T13:55:22;25.10;99.90
34768;DHT22;21755;43.608;1.236;2023-09-18T13:57:48;25.10;1.00
34768;DHT22;21755;43.608;1.236;2023-09-18T14:00:14;25.00;1.00
34768;DHT22;21755;43.608;1.236;2023-09-18T14:02:40;24.90;99.90
34768;DHT22;21755;43.608;1.236;2023-09-18T14:05:08;24.90;99.90
34768;DHT22;21755;43.608;1.236;2023-09-18T14:07:35;24.90;1.00
34768;DHT22;21755;43.608;1.236;2023-09-18T14:10:01;24.90;99.90
34768;DHT22;21755;43.608;1.236;2023-09-18T14:12:30;25.00;99.90
34768;DHT22;21755;43.608;1.236;2023-09-18T14:14:56;24.90;1.00
34768;DHT22;21755;43.608;1.236;2023-09-18T14:17:22;25.00;99.90
34768;DHT22;21755;43.608;1.236;2023-09-18T14:19:48;24.90;99.90
34768;DHT22;21755;43.608;1.236;2023-09-18T14:22:14;24.90;1.00
34768;DHT22;21755;43.608;1.236;2023-09-18T14:24:40;24.90;1.00
34768;DHT22;21755;43.608;1.236;2023-09-18T14:27:06;24.90;99.90
34768;DHT22;21755;43.608;1.236;2023-09-18T14:29:33;25.00;1.00
34768;DHT22;21755;43.608;1.236;2023-09-18T14:32:00;25.00;99.90
34768;DHT22;21755;43.608;1.236;2023-09-18T14:34:26;25.10;1.00
34768;DHT22;21755;43.608;1.236;2023-09-18T14:36:52;25.00;1.00
34768;DHT22;21755;43.608;1.236;2023-09-18T14:39:18;25.10;47.10
34768;DHT22;21755;43.608;1.236;2023-09-18T14:41:44;25.10;1.00
34768;DHT22;21755;43.608;1.236;2023-09-18T14:44:10;25.10;99.90
34768;DHT22;21755;43.608;1.236;2023-09-18T14:46:37;25.20;30.80
34768;DHT22;21755;43.608;1.236;2023-09-18T14:49:06;25.30;99.90
34768;DHT22;21755;43.608;1.236;2023-09-18T14:51:35;25.30;99.90
34768;DHT22;21755;43.608;1.236;2023-09-18T14:54:02;25.30;1.00
34768;DHT22;21755;43.608;1.236;2023-09-18T14:56:30;25.30;1.00
34768;DHT22;21755;43.608;1.236;2023-09-18T14:58:56;25.20;99.90
34768;DHT22;21755;43.608;1.236;2023-09-18T15:01:23;25.20;40.30
34768;DHT22;21755;43.608;1.236;2023-09-18T15:03:50;25.20;99.90
34768;DHT22;21755;43.608;1.236;2023-09-18T15:06:17;25.20;1.00
34768;DHT22;21755;43.608;1.236;2023-09-18T15:08:43;25.20;99.90
34768;DHT22;21755;43.608;1.236;2023-09-18T15:11:10;25.20;99.90
34768;DHT22;21755;43.608;1.236;2023-09-18T15:13:36;25.20;77.70
34768;DHT22;21755;43.608;1.236;2023-09-18T15:16:03;25.20;32.00
34768;DHT22;21755;43.608;1.236;2023-09-18T15:18:29;25.10;1.00
34768;DHT22;21755;43.608;1.236;2023-09-18T15:20:54;25.10;1.00
34768;DHT22;21755;43.608;1.236;2023-09-18T15:23:21;25.10;99.40
34768;DHT22;21755;43.608;1.236;2023-09-18T15:25:49;25.00;31.30
34768;DHT22;21755;43.608;1.236;2023-09-18T15:28:16;25.10;99.90
34768;DHT22;21755;43.608;1.236;2023-09-18T15:30:45;25.00;1.00
34768;DHT22;21755;43.608;1.236;2023-09-18T15:33:10;25.00;1.00
34768;DHT22;21755;43.608;1.236;2023-09-18T15:35:37;25.00;99.90
34768;DHT22;21755;43.608;1.236;2023-09-18T15:38:03;24.90;99.90
34768;DHT22;21755;43.608;1.236;2023-09-18T15:40:29;24.90;99.90
34768;DHT22;21755;43.608;1.236;2023-09-18T15:42:55;24.90;99.90
34768;DHT22;21755;43.608;1.236;2023-09-18T15:45:21;24.90;1.00
34768;DHT22;21755;43.608;1.236;2023-09-18T15:47:46;24.90;1.00